sensor_id;sensor_type;location;lat;lon;timestamp;P1;durP1;ratioP1;P2;durP2;ratioP2
52226;SDS011;38190;59.928;10.446;2022-07-23T00:00:09;2.53;;;2.33;;
52226;SDS011;38190;59.928;10.446;2022-07-23T00:03:10;3.05;;;2.72;;
52226;SDS011;38190;59.928;10.446;2022-07-23T00:06:10;2.40;;;2.05;;
52226;SDS011;38190;59.928;10.446;2022-07-23T00:09:11;2.53;;;1.77;;
52226;SDS011;38190;59.928;10.446;2022-07-23T00:12:12;4.43;;;2.00;;
52226;SDS011;38190;59.928;10.446;2022-07-23T00:15:12;3.55;;;2.80;;
52226;SDS011;38190;59.928;10.446;2022-07-23T00:18:13;3.35;;;2.40;;
52226;SDS011;38190;59.928;10.446;2022-07-23T00:21:13;3.88;;;2.67;;
52226;SDS011;38190;59.928;10.446;2022-07-23T00:24:13;4.43;;;2.78;;
52226;SDS011;38190;59.928;10.446;2022-07-23T00:27:14;3.95;;;2.72;;
52226;SDS011;38190;59.928;10.446;2022-07-23T00:30:15;2.53;;;1.63;;
52226;SDS011;38190;59.928;10.446;2022-07-23T00:33:15;2.25;;;1.98;;
52226;SDS011;38190;59.928;10.446;2022-07-23T00:36:16;3.20;;;2.78;;
52226;SDS011;38190;59.928;10.446;2022-07-23T00:39:16;4.43;;;2.47;;
52226;SDS011;38190;59.928;10.446;2022-07-23T00:42:17;4.28;;;2.40;;
52226;SDS011;38190;59.928;10.446;2022-07-23T00:45:17;2.95;;;2.45;;
52226;SDS011;38190;59.928;10.446;2022-07-23T00:48:18;3.28;;;1.70;;
52226;SDS011;38190;59.928;10.446;2022-07-23T00:51:18;2.47;;;1.98;;
52226;SDS011;38190;59.928;10.446;2022-07-23T00:54:19;5.65;;;3.10;;
52226;SDS011;38190;59.928;10.446;2022-07-23T00:57:21;3.33;;;2.03;;
52226;SDS011;38190;59.928;10.446;2022-07-23T01:00:22;2.95;;;1.83;;
52226;SDS011;38190;59.928;10.446;2022-07-23T01:03:22;6.13;;;2.35;;
52226;SDS011;38190;59.928;10.446;2022-07-23T01:06:23;3.00;;;2.22;;
52226;SDS011;38190;59.928;10.446;2022-07-23T01:09:23;2.40;;;2.05;;
52226;SDS011;38190;59.928;10.446;2022-07-23T01:12:24;15.73;;;2.33;;
52226;SDS011;38190;59.928;10.446;2022-07-23T01:15:25;2.25;;;1.67;;
52226;SDS011;38190;59.928;10.446;2022-07-23T01:18:25;5.05;;;2.67;;
52226;SDS011;38190;59.928;10.446;2022-07-23T01:21:26;2.47;;;2.28;;
52226;SDS011;38190;59.928;10.446;2022-07-23T01:24:26;3.17;;;2.75;;
52226;SDS011;38190;59.928;10.446;2022-07-23T01:27:27;2.45;;;1.70;;
52226;SDS011;38190;59.928;10.446;2022-07-23T01:30:28;2.13;;;1.75;;
52226;SDS011;38190;59.928;10.446;2022-07-23T01:33:28;2.92;;;2.20;;
52226;SDS011;38190;59.928;10.446;2022-07-23T01:36:29;2.65;;;1.63;;
52226;SDS011;38190;59.928;10.446;2022-07-23T01:39:29;3.80;;;2.08;;
52226;SDS011;38190;59.928;10.446;2022-07-23T01:42:30;4.07;;;2.15;;
52226;SDS011;38190;59.928;10.446;2022-07-23T01:45:31;3.85;;;2.13;;
52226;SDS011;38190;59.928;10.446;2022-07-23T01:48:31;2.13;;;1.92;;
52226;SDS011;38190;59.928;10.446;2022-07-23T01:51:32;3.63;;;2.30;;
52226;SDS011;38190;59.928;10.446;2022-07-23T01:54:32;3.17;;;1.77;;
52226;SDS011;38190;59.928;10.446;2022-07-23T01:57:34;2.47;;;1.55;;
52226;SDS011;38190;59.928;10.446;2022-07-23T02:00:34;2.72;;;2.03;;
52226;SDS011;38190;59.928;10.446;2022-07-23T02:03:35;4.38;;;2.05;;
52226;SDS011;38190;59.928;10.446;2022-07-23T02:06:36;2.65;;;2.03;;
52226;SDS011;38190;59.928;10.446;2022-07-23T02:09:36;3.85;;;1.65;;
52226;SDS011;38190;59.928;10.446;2022-07-23T02:12:36;2.55;;;2.22;;
52226;SDS011;38190;59.928;10.446;2022-07-23T02:15:37;2.22;;;1.75;;
52226;SDS011;38190;59.928;10.446;2022-07-23T02:18:38;5.68;;;2.13;;
52226;SDS011;38190;59.928;10.446;2022-07-23T02:21:38;3.20;;;1.60;;
52226;SDS011;38190;59.928;10.446;2022-07-23T02:24:39;2.88;;;2.05;;
52226;SDS011;38190;59.928;10.446;2022-07-23T02:27:39;3.08;;;2.00;;
52226;SDS011;38190;59.928;10.446;2022-07-23T02:30:40;2.67;;;1.85;;
52226;SDS011;38190;59.928;10.446;2022-07-23T02:33:40;3.22;;;2.47;;
52226;SDS011;38190;59.928;10.446;2022-07-23T02:36:41;1.67;;;1.20;;
52226;SDS011;38190;59.928;10.446;2022-07-23T02:39:41;2.63;;;2.28;;
52226;SDS011;38190;59.928;10.446;2022-07-23T02:42:42;3.30;;;2.70;;
52226;SDS011;38190;59.928;10.446;2022-07-23T02:45:42;2.60;;;1.55;;
52226;SDS011;38190;59.928;10.446;2022-07-23T02:48:42;6.15;;;2.28;;
52226;SDS011;38190;59.928;10.446;2022-07-23T02:51:43;2.30;;;1.70;;
52226;SDS011;38190;59.928;10.446;2022-07-23T02:54:43;3.40;;;1.52;;
52226;SDS011;38190;59.928;10.446;2022-07-23T02:57:44;3.67;;;1.67;;
52226;SDS011;38190;59.928;10.446;2022-07-23T03:00:44;21.02;;;2.45;;
52226;SDS011;38190;59.928;10.446;2022-07-23T03:03:45;2.03;;;1.13;;
52226;SDS011;38190;59.928;10.446;2022-07-23T03:06:46;2.42;;;2.00;;
52226;SDS011;38190;59.928;10.446;2022-07-23T03:09:46;2.33;;;1.40;;
52226;SDS011;38190;59.928;10.446;2022-07-23T03:12:47;3.15;;;2.47;;
52226;SDS011;38190;59.928;10.446;2022-07-23T03:15:47;2.28;;;1.75;;
52226;SDS011;38190;59.928;10.446;2022-07-23T03:18:48;3.15;;;1.98;;
52226;SDS011;38190;59.928;10.446;2022-07-23T03:21:48;2.00;;;1.35;;
52226;SDS011;38190;59.928;10.446;2022-07-23T03:24:49;1.60;;;1.20;;
52226;SDS011;38190;59.928;10.446;2022-07-23T03:27:55;2.63;;;2.42;;
52226;SDS011;38190;59.928;10.446;2022-07-23T03:30:56;2.55;;;1.75;;
52226;SDS011;38190;59.928;10.446;2022-07-23T03:33:56;3.00;;;1.80;;
52226;SDS011;38190;59.928;10.446;2022-07-23T03:36:57;1.85;;;1.30;;
52226;SDS011;38190;59.928;10.446;2022-07-23T03:39:58;3.50;;;2.28;;
52226;SDS011;38190;59.928;10.446;2022-07-23T03:42:58;2.53;;;2.08;;
52226;SDS011;38190;59.928;10.446;2022-07-23T03:45:58;1.35;;;1.25;;
52226;SDS011;38190;59.928;10.446;2022-07-23T03:48:59;2.08;;;1.88;;
52226;SDS011;38190;59.928;10.446;2022-07-23T03:51:59;2.67;;;1.88;;
52226;SDS011;38190;59.928;10.446;2022-07-23T03:55:00;2.40;;;1.55;;
52226;SDS011;38190;59.928;10.446;2022-07-23T03:58:01;1.77;;;1.27;;
52226;SDS011;38190;59.928;10.446;2022-07-23T04:01:02;2.90;;;1.65;;
52226;SDS011;38190;59.928;10.446;2022-07-23T04:04:02;3.03;;;1.67;;
52226;SDS011;38190;59.928;10.446;2022-07-23T04:07:03;1.85;;;1.48;;
52226;SDS011;38190;59.928;10.446;2022-07-23T04:10:04;2.08;;;1.88;;
52226;SDS011;38190;59.928;10.446;2022-07-23T04:13:05;2.15;;;1.40;;
52226;SDS011;38190;59.928;10.446;2022-07-23T04:16:05;1.88;;;1.63;;
52226;SDS011;38190;59.928;10.446;2022-07-23T04:19:06;1.88;;;1.33;;
52226;SDS011;38190;59.928;10.446;2022-07-23T04:22:07;17.95;;;1.70;;
52226;SDS011;38190;59.928;10.446;2022-07-23T04:25:08;1.35;;;1.25;;
52226;SDS011;38190;59.928;10.446;2022-07-23T04:28:08;1.90;;;1.77;;
52226;SDS011;38190;59.928;10.446;2022-07-23T04:31:09;2.88;;;2.10;;
52226;SDS011;38190;59.928;10.446;2022-07-23T04:34:10;2.15;;;1.27;;
52226;SDS011;38190;59.928;10.446;2022-07-23T04:37:10;2.17;;;1.45;;
52226;SDS011;38190;59.928;10.446;2022-07-23T04:40:11;3.53;;;2.03;;
52226;SDS011;38190;59.928;10.446;2022-07-23T04:43:12;1.90;;;1.42;;
52226;SDS011;38190;59.928;10.446;2022-07-23T04:46:13;3.10;;;2.03;;
52226;SDS011;38190;59.928;10.446;2022-07-23T04:49:13;2.83;;;1.90;;
52226;SDS011;38190;59.928;10.446;2022-07-23T04:52:14;2.00;;;1.85;;
52226;SDS011;38190;59.928;10.446;2022-07-23T04:55:15;1.63;;;1.23;;
52226;SDS011;38190;59.928;10.446;2022-07-23T04:58:16;1.65;;;1.10;;
52226;SDS011;38190;59.928;10.446;2022-07-23T05:01:17;2.10;;;1.77;;
52226;SDS011;38190;59.928;10.446;2022-07-23T05:04:17;4.60;;;1.98;;
52226;SDS011;38190;59.928;10.446;2022-07-23T05:07:17;2.35;;;1.40;;
52226;SDS011;38190;59.928;10.446;2022-07-23T05:10:19;2.42;;;1.35;;
52226;SDS011;38190;59.928;10.446;2022-07-23T05:13:20;2.28;;;1.90;;
52226;SDS011;38190;59.928;10.446;2022-07-23T05:16:21;2.05;;;1.70;;
52226;SDS011;38190;59.928;10.446;2022-07-23T05:19:22;1.98;;;1.65;;
52226;SDS011;38190;59.928;10.446;2022-07-23T05:22:23;1.92;;;1.52;;
52226;SDS011;38190;59.928;10.446;2022-07-23T05:25:23;2.33;;;1.63;;
52226;SDS011;38190;59.928;10.446;2022-07-23T05:28:24;1.83;;;1.42;;
52226;SDS011;38190;59.928;10.446;2022-07-23T05:31:24;10.98;;;1.20;;
52226;SDS011;38190;59.928;10.446;2022-07-23T05:34:24;1.55;;;0.93;;
52226;SDS011;38190;59.928;10.446;2022-07-23T05:37:25;2.00;;;1.33;;
52226;SDS011;38190;59.928;10.446;2022-07-23T05:40:25;2.00;;;1.75;;
52226;SDS011;38190;59.928;10.446;2022-07-23T05:43:26;1.65;;;1.30;;
52226;SDS011;38190;59.928;10.446;2022-07-23T05:46:27;1.85;;;1.65;;
52226;SDS011;38190;59.928;10.446;2022-07-23T05:49:27;1.25;;;1.13;;
52226;SDS011;38190;59.928;10.446;2022-07-23T05:52:28;1.48;;;1.38;;
52226;SDS011;38190;59.928;10.446;2022-07-23T05:55:28;0.98;;;0.50;;
52226;SDS011;38190;59.928;10.446;2022-07-23T05:58:29;1.73;;;1.58;;
52226;SDS011;38190;59.928;10.446;2022-07-23T06:01:29;2.35;;;1.27;;
52226;SDS011;38190;59.928;10.446;2022-07-23T06:04:30;1.25;;;0.95;;
52226;SDS011;38190;59.928;10.446;2022-07-23T06:07:30;1.27;;;0.65;;
52226;SDS011;38190;59.928;10.446;2022-07-23T06:10:31;1.08;;;0.82;;
52226;SDS011;38190;59.928;10.446;2022-07-23T06:13:31;0.95;;;0.60;;
52226;SDS011;38190;59.928;10.446;2022-07-23T06:16:32;1.10;;;0.73;;
52226;SDS011;38190;59.928;10.446;2022-07-23T06:19:32;1.20;;;0.68;;
52226;SDS011;38190;59.928;10.446;2022-07-23T06:22:32;1.50;;;0.73;;
52226;SDS011;38190;59.928;10.446;2022-07-23T06:25:33;4.05;;;0.93;;
52226;SDS011;38190;59.928;10.446;2022-07-23T06:28:33;1.23;;;0.60;;
52226;SDS011;38190;59.928;10.446;2022-07-23T06:31:34;1.05;;;0.60;;
52226;SDS011;38190;59.928;10.446;2022-07-23T06:34:35;0.65;;;0.50;;
52226;SDS011;38190;59.928;10.446;2022-07-23T06:37:35;1.00;;;0.68;;
52226;SDS011;38190;59.928;10.446;2022-07-23T06:40:36;0.40;;;0.20;;
52226;SDS011;38190;59.928;10.446;2022-07-23T06:43:36;0.70;;;0.63;;
52226;SDS011;38190;59.928;10.446;2022-07-23T06:46:37;1.48;;;0.80;;
52226;SDS011;38190;59.928;10.446;2022-07-23T06:49:37;0.65;;;0.45;;
52226;SDS011;38190;59.928;10.446;2022-07-23T06:52:38;0.55;;;0.45;;
52226;SDS011;38190;59.928;10.446;2022-07-23T06:55:38;0.30;;;0.20;;
52226;SDS011;38190;59.928;10.446;2022-07-23T06:58:40;0.40;;;0.30;;
52226;SDS011;38190;59.928;10.446;2022-07-23T07:01:40;1.67;;;0.60;;
52226;SDS011;38190;59.928;10.446;2022-07-23T07:04:40;0.73;;;0.50;;
52226;SDS011;38190;59.928;10.446;2022-07-23T07:07:41;0.88;;;0.52;;
52226;SDS011;38190;59.928;10.446;2022-07-23T07:10:41;1.00;;;0.65;;
52226;SDS011;38190;59.928;10.446;2022-07-23T07:13:42;0.73;;;0.50;;
52226;SDS011;38190;59.928;10.446;2022-07-23T07:16:42;0.35;;;0.30;;
52226;SDS011;38190;59.928;10.446;2022-07-23T07:19:43;3.30;;;1.23;;
52226;SDS011;38190;59.928;10.446;2022-07-23T07:22:43;0.43;;;0.30;;
52226;SDS011;38190;59.928;10.446;2022-07-23T07:25:44;1.55;;;0.65;;
52226;SDS011;38190;59.928;10.446;2022-07-23T07:28:44;0.93;;;0.43;;
52226;SDS011;38190;59.928;10.446;2022-07-23T07:31:45;0.55;;;0.45;;
52226;SDS011;38190;59.928;10.446;2022-07-23T07:34:45;0.75;;;0.68;;
52226;SDS011;38190;59.928;10.446;2022-07-23T07:37:46;0.32;;;0.20;;
52226;SDS011;38190;59.928;10.446;2022-07-23T07:40:46;0.65;;;0.45;;
52226;SDS011;38190;59.928;10.446;2022-07-23T07:43:47;0.57;;;0.43;;
52226;SDS011;38190;59.928;10.446;2022-07-23T07:46:47;0.45;;;0.30;;
52226;SDS011;38190;59.928;10.446;2022-07-23T07:49:47;0.70;;;0.50;;
52226;SDS011;38190;59.928;10.446;2022-07-23T07:52:48;1.00;;;0.68;;
52226;SDS011;38190;59.928;10.446;2022-07-23T07:55:48;0.43;;;0.30;;
52226;SDS011;38190;59.928;10.446;2022-07-23T07:58:49;0.88;;;0.57;;
52226;SDS011;38190;59.928;10.446;2022-07-23T08:01:49;0.80;;;0.50;;
52226;SDS011;38190;59.928;10.446;2022-07-23T08:04:50;0.35;;;0.35;;
52226;SDS011;38190;59.928;10.446;2022-07-23T08:07:50;0.52;;;0.35;;
52226;SDS011;38190;59.928;10.446;2022-07-23T08:10:51;1.05;;;0.40;;
52226;SDS011;38190;59.928;10.446;2022-07-23T08:13:52;0.98;;;0.50;;
52226;SDS011;38190;59.928;10.446;2022-07-23T08:16:52;0.30;;;0.30;;
52226;SDS011;38190;59.928;10.446;2022-07-23T08:19:52;1.83;;;0.47;;
52226;SDS011;38190;59.928;10.446;2022-07-23T08:22:54;1.00;;;0.40;;
52226;SDS011;38190;59.928;10.446;2022-07-23T08:25:57;1.13;;;0.55;;
52226;SDS011;38190;59.928;10.446;2022-07-23T08:28:59;0.82;;;0.47;;
52226;SDS011;38190;59.928;10.446;2022-07-23T08:32:00;1.80;;;0.73;;
52226;SDS011;38190;59.928;10.446;2022-07-23T08:35:00;1.17;;;0.52;;
52226;SDS011;38190;59.928;10.446;2022-07-23T08:38:02;0.90;;;0.70;;
52226;SDS011;38190;59.928;10.446;2022-07-23T08:41:03;0.38;;;0.30;;
52226;SDS011;38190;59.928;10.446;2022-07-23T08:44:07;0.93;;;0.68;;
52226;SDS011;38190;59.928;10.446;2022-07-23T08:47:09;0.68;;;0.50;;
52226;SDS011;38190;59.928;10.446;2022-07-23T08:50:11;0.95;;;0.52;;
52226;SDS011;38190;59.928;10.446;2022-07-23T08:53:11;0.77;;;0.40;;
52226;SDS011;38190;59.928;10.446;2022-07-23T08:56:13;1.08;;;0.57;;
52226;SDS011;38190;59.928;10.446;2022-07-23T08:59:13;0.65;;;0.60;;
52226;SDS011;38190;59.928;10.446;2022-07-23T09:02:16;2.25;;;0.65;;
52226;SDS011;38190;59.928;10.446;2022-07-23T09:05:17;3.05;;;0.70;;
52226;SDS011;38190;59.928;10.446;2022-07-23T09:08:19;1.38;;;0.60;;
52226;SDS011;38190;59.928;10.446;2022-07-23T09:11:21;2.90;;;0.97;;
52226;SDS011;38190;59.928;10.446;2022-07-23T09:14:38;0.95;;;0.50;;
52226;SDS011;38190;59.928;10.446;2022-07-23T09:17:43;0.40;;;0.40;;
52226;SDS011;38190;59.928;10.446;2022-07-23T09:20:44;1.27;;;0.98;;
52226;SDS011;38190;59.928;10.446;2022-07-23T09:26:46;0.93;;;0.65;;
52226;SDS011;38190;59.928;10.446;2022-07-23T09:29:55;1.15;;;0.60;;
52226;SDS011;38190;59.928;10.446;2022-07-23T09:33:03;0.43;;;0.28;;
52226;SDS011;38190;59.928;10.446;2022-07-23T09:36:11;0.70;;;0.50;;
52226;SDS011;38190;59.928;10.446;2022-07-23T09:39:12;0.63;;;0.47;;
52226;SDS011;38190;59.928;10.446;2022-07-23T09:42:18;1.20;;;0.98;;
52226;SDS011;38190;59.928;10.446;2022-07-23T09:45:20;0.38;;;0.30;;
52226;SDS011;38190;59.928;10.446;2022-07-23T09:48:21;0.82;;;0.73;;
52226;SDS011;38190;59.928;10.446;2022-07-23T09:51:22;3.28;;;0.88;;
52226;SDS011;38190;59.928;10.446;2022-07-23T09:54:37;1.05;;;0.73;;
52226;SDS011;38190;59.928;10.446;2022-07-23T09:57:43;0.35;;;0.32;;
52226;SDS011;38190;59.928;10.446;2022-07-23T10:00:45;0.65;;;0.52;;
52226;SDS011;38190;59.928;10.446;2022-07-23T10:03:46;0.70;;;0.60;;
52226;SDS011;38190;59.928;10.446;2022-07-23T10:06:46;0.47;;;0.40;;
52226;SDS011;38190;59.928;10.446;2022-07-23T10:09:48;1.48;;;0.32;;
52226;SDS011;38190;59.928;10.446;2022-07-23T10:12:50;2.78;;;0.98;;
52226;SDS011;38190;59.928;10.446;2022-07-23T10:15:51;0.30;;;0.22;;
52226;SDS011;38190;59.928;10.446;2022-07-23T10:18:52;0.82;;;0.50;;
52226;SDS011;38190;59.928;10.446;2022-07-23T10:21:54;0.50;;;0.43;;
52226;SDS011;38190;59.928;10.446;2022-07-23T10:39:17;1.13;;;0.80;;
52226;SDS011;38190;59.928;10.446;2022-07-23T10:42:16;1.13;;;0.90;;
52226;SDS011;38190;59.928;10.446;2022-07-23T10:48:28;0.47;;;0.30;;
52226;SDS011;38190;59.928;10.446;2022-07-23T10:51:29;0.60;;;0.50;;
52226;SDS011;38190;59.928;10.446;2022-07-23T10:54:30;0.85;;;0.60;;
52226;SDS011;38190;59.928;10.446;2022-07-23T10:57:30;1.25;;;0.60;;
52226;SDS011;38190;59.928;10.446;2022-07-23T11:00:35;0.77;;;0.50;;
52226;SDS011;38190;59.928;10.446;2022-07-23T11:03:37;1.40;;;0.50;;
52226;SDS011;38190;59.928;10.446;2022-07-23T11:09:50;1.00;;;0.60;;
52226;SDS011;38190;59.928;10.446;2022-07-23T11:12:51;3.53;;;0.95;;
52226;SDS011;38190;59.928;10.446;2022-07-23T11:19:03;1.50;;;0.65;;
52226;SDS011;38190;59.928;10.446;2022-07-23T11:22:05;0.93;;;0.80;;
52226;SDS011;38190;59.928;10.446;2022-07-23T11:25:06;0.30;;;0.30;;
52226;SDS011;38190;59.928;10.446;2022-07-23T11:28:08;0.60;;;0.50;;
52226;SDS011;38190;59.928;10.446;2022-07-23T11:31:18;0.52;;;0.40;;
52226;SDS011;38190;59.928;10.446;2022-07-23T11:37:38;2.92;;;0.90;;
52226;SDS011;38190;59.928;10.446;2022-07-23T11:40:40;0.98;;;0.85;;
52226;SDS011;38190;59.928;10.446;2022-07-23T11:43:41;1.90;;;0.75;;
52226;SDS011;38190;59.928;10.446;2022-07-23T11:46:53;1.08;;;0.68;;
52226;SDS011;38190;59.928;10.446;2022-07-23T11:49:58;0.55;;;0.45;;
52226;SDS011;38190;59.928;10.446;2022-07-23T11:53:00;0.85;;;0.50;;
52226;SDS011;38190;59.928;10.446;2022-07-23T11:56:05;0.60;;;0.40;;
52226;SDS011;38190;59.928;10.446;2022-07-23T11:59:10;0.85;;;0.47;;
52226;SDS011;38190;59.928;10.446;2022-07-23T12:02:11;0.55;;;0.45;;
52226;SDS011;38190;59.928;10.446;2022-07-23T12:05:13;0.70;;;0.60;;
52226;SDS011;38190;59.928;10.446;2022-07-23T12:08:14;2.60;;;0.50;;
52226;SDS011;38190;59.928;10.446;2022-07-23T12:11:15;1.38;;;0.85;;
52226;SDS011;38190;59.928;10.446;2022-07-23T12:14:15;0.80;;;0.52;;
52226;SDS011;38190;59.928;10.446;2022-07-23T12:17:16;2.00;;;0.75;;
52226;SDS011;38190;59.928;10.446;2022-07-23T12:20:31;0.68;;;0.60;;
52226;SDS011;38190;59.928;10.446;2022-07-23T12:23:36;0.63;;;0.63;;
52226;SDS011;38190;59.928;10.446;2022-07-23T12:26:38;0.35;;;0.32;;
52226;SDS011;38190;59.928;10.446;2022-07-23T12:29:38;0.30;;;0.30;;
52226;SDS011;38190;59.928;10.446;2022-07-23T12:32:42;2.28;;;1.02;;
52226;SDS011;38190;59.928;10.446;2022-07-23T12:35:45;1.92;;;0.82;;
52226;SDS011;38190;59.928;10.446;2022-07-23T12:38:47;0.68;;;0.60;;
52226;SDS011;38190;59.928;10.446;2022-07-23T12:41:50;1.05;;;0.65;;
52226;SDS011;38190;59.928;10.446;2022-07-23T12:45:12;1.88;;;1.05;;
52226;SDS011;38190;59.928;10.446;2022-07-23T12:48:16;1.70;;;0.93;;
52226;SDS011;38190;59.928;10.446;2022-07-23T12:51:29;0.75;;;0.43;;
52226;SDS011;38190;59.928;10.446;2022-07-23T12:54:32;3.30;;;0.73;;
52226;SDS011;38190;59.928;10.446;2022-07-23T12:57:45;1.05;;;0.65;;
52226;SDS011;38190;59.928;10.446;2022-07-23T13:00:57;1.27;;;0.73;;
52226;SDS011;38190;59.928;10.446;2022-07-23T13:07:09;0.77;;;0.52;;
52226;SDS011;38190;59.928;10.446;2022-07-23T13:10:09;0.85;;;0.52;;
52226;SDS011;38190;59.928;10.446;2022-07-23T13:13:12;1.58;;;0.70;;
52226;SDS011;38190;59.928;10.446;2022-07-23T13:16:13;1.02;;;0.50;;
52226;SDS011;38190;59.928;10.446;2022-07-23T13:19:13;0.85;;;0.63;;
52226;SDS011;38190;59.928;10.446;2022-07-23T13:22:14;1.08;;;0.47;;
52226;SDS011;38190;59.928;10.446;2022-07-23T13:25:17;0.15;;;0.15;;
52226;SDS011;38190;59.928;10.446;2022-07-23T13:28:19;0.93;;;0.50;;
52226;SDS011;38190;59.928;10.446;2022-07-23T13:31:20;1.65;;;0.73;;
52226;SDS011;38190;59.928;10.446;2022-07-23T13:34:21;0.93;;;0.73;;
52226;SDS011;38190;59.928;10.446;2022-07-23T13:37:21;1.00;;;0.75;;
52226;SDS011;38190;59.928;10.446;2022-07-23T13:40:22;3.70;;;0.75;;
52226;SDS011;38190;59.928;10.446;2022-07-23T13:43:23;1.27;;;0.73;;
52226;SDS011;38190;59.928;10.446;2022-07-23T13:46:25;3.13;;;1.55;;
52226;SDS011;38190;59.928;10.446;2022-07-23T13:49:25;1.10;;;0.88;;
52226;SDS011;38190;59.928;10.446;2022-07-23T13:52:26;0.88;;;0.55;;
52226;SDS011;38190;59.928;10.446;2022-07-23T13:55:26;0.98;;;0.75;;
52226;SDS011;38190;59.928;10.446;2022-07-23T13:58:27;0.90;;;0.68;;
52226;SDS011;38190;59.928;10.446;2022-07-23T14:01:27;0.88;;;0.60;;
52226;SDS011;38190;59.928;10.446;2022-07-23T14:04:28;0.98;;;0.85;;
52226;SDS011;38190;59.928;10.446;2022-07-23T14:07:28;1.45;;;0.95;;
52226;SDS011;38190;59.928;10.446;2022-07-23T14:10:29;1.70;;;1.05;;
52226;SDS011;38190;59.928;10.446;2022-07-23T14:13:33;1.02;;;0.57;;
52226;SDS011;38190;59.928;10.446;2022-07-23T14:16:33;1.33;;;0.85;;
52226;SDS011;38190;59.928;10.446;2022-07-23T14:19:34;0.90;;;0.65;;
52226;SDS011;38190;59.928;10.446;2022-07-23T14:22:34;0.77;;;0.40;;
52226;SDS011;38190;59.928;10.446;2022-07-23T14:25:36;1.00;;;0.77;;
52226;SDS011;38190;59.928;10.446;2022-07-23T14:28:36;0.85;;;0.63;;
52226;SDS011;38190;59.928;10.446;2022-07-23T14:31:36;1.23;;;0.80;;
52226;SDS011;38190;59.928;10.446;2022-07-23T14:34:37;0.88;;;0.80;;
52226;SDS011;38190;59.928;10.446;2022-07-23T14:37:38;1.15;;;0.70;;
52226;SDS011;38190;59.928;10.446;2022-07-23T14:40:39;0.88;;;0.45;;
52226;SDS011;38190;59.928;10.446;2022-07-23T14:43:39;0.70;;;0.63;;
52226;SDS011;38190;59.928;10.446;2022-07-23T14:46:39;0.95;;;0.63;;
52226;SDS011;38190;59.928;10.446;2022-07-23T14:49:40;1.45;;;0.65;;
52226;SDS011;38190;59.928;10.446;2022-07-23T14:52:41;1.02;;;0.80;;
52226;SDS011;38190;59.928;10.446;2022-07-23T14:55:41;1.80;;;1.30;;
52226;SDS011;38190;59.928;10.446;2022-07-23T14:58:42;0.75;;;0.60;;
52226;SDS011;38190;59.928;10.446;2022-07-23T15:01:42;1.10;;;0.82;;
52226;SDS011;38190;59.928;10.446;2022-07-23T15:04:43;2.38;;;0.70;;
52226;SDS011;38190;59.928;10.446;2022-07-23T15:07:43;1.15;;;0.70;;
52226;SDS011;38190;59.928;10.446;2022-07-23T15:10:44;3.33;;;1.23;;
52226;SDS011;38190;59.928;10.446;2022-07-23T15:13:45;2.05;;;1.00;;
52226;SDS011;38190;59.928;10.446;2022-07-23T15:16:46;0.98;;;0.85;;
52226;SDS011;38190;59.928;10.446;2022-07-23T15:19:46;1.25;;;0.88;;
52226;SDS011;38190;59.928;10.446;2022-07-23T15:22:47;1.10;;;0.88;;
52226;SDS011;38190;59.928;10.446;2022-07-23T15:25:48;1.63;;;0.90;;
52226;SDS011;38190;59.928;10.446;2022-07-23T15:28:48;1.33;;;0.90;;
52226;SDS011;38190;59.928;10.446;2022-07-23T15:31:49;2.47;;;0.88;;
52226;SDS011;38190;59.928;10.446;2022-07-23T15:34:49;3.55;;;1.23;;
52226;SDS011;38190;59.928;10.446;2022-07-23T15:37:50;1.40;;;0.68;;
52226;SDS011;38190;59.928;10.446;2022-07-23T15:40:51;0.98;;;0.68;;
52226;SDS011;38190;59.928;10.446;2022-07-23T15:43:55;1.63;;;0.80;;
52226;SDS011;38190;59.928;10.446;2022-07-23T15:46:56;3.75;;;1.25;;
52226;SDS011;38190;59.928;10.446;2022-07-23T15:49:57;1.38;;;0.85;;
52226;SDS011;38190;59.928;10.446;2022-07-23T15:52:58;2.10;;;1.30;;
52226;SDS011;38190;59.928;10.446;2022-07-23T15:55:58;5.20;;;0.63;;
52226;SDS011;38190;59.928;10.446;2022-07-23T15:58:59;1.20;;;0.90;;
52226;SDS011;38190;59.928;10.446;2022-07-23T16:01:59;3.88;;;1.17;;
52226;SDS011;38190;59.928;10.446;2022-07-23T16:05:00;3.13;;;0.90;;
52226;SDS011;38190;59.928;10.446;2022-07-23T16:08:21;1.65;;;0.93;;
52226;SDS011;38190;59.928;10.446;2022-07-23T16:11:22;1.65;;;0.95;;
52226;SDS011;38190;59.928;10.446;2022-07-23T16:14:22;1.58;;;0.93;;
52226;SDS011;38190;59.928;10.446;2022-07-23T16:17:23;1.33;;;0.88;;
52226;SDS011;38190;59.928;10.446;2022-07-23T16:20:24;1.10;;;0.68;;
52226;SDS011;38190;59.928;10.446;2022-07-23T16:23:26;0.90;;;0.75;;
52226;SDS011;38190;59.928;10.446;2022-07-23T16:26:26;1.48;;;1.08;;
52226;SDS011;38190;59.928;10.446;2022-07-23T16:29:27;1.42;;;0.98;;
52226;SDS011;38190;59.928;10.446;2022-07-23T16:32:27;2.63;;;1.02;;
52226;SDS011;38190;59.928;10.446;2022-07-23T16:35:28;2.03;;;0.95;;
52226;SDS011;38190;59.928;10.446;2022-07-23T16:38:28;1.10;;;0.65;;
52226;SDS011;38190;59.928;10.446;2022-07-23T16:41:29;2.00;;;0.98;;
52226;SDS011;38190;59.928;10.446;2022-07-23T16:44:29;2.08;;;1.33;;
52226;SDS011;38190;59.928;10.446;2022-07-23T16:47:30;1.45;;;1.13;;
52226;SDS011;38190;59.928;10.446;2022-07-23T16:50:30;0.85;;;0.70;;
52226;SDS011;38190;59.928;10.446;2022-07-23T16:53:31;1.67;;;0.73;;
52226;SDS011;38190;59.928;10.446;2022-07-23T16:56:31;1.27;;;0.93;;
52226;SDS011;38190;59.928;10.446;2022-07-23T16:59:32;1.38;;;1.05;;
52226;SDS011;38190;59.928;10.446;2022-07-23T17:02:32;2.50;;;1.27;;
52226;SDS011;38190;59.928;10.446;2022-07-23T17:05:33;1.38;;;0.75;;
52226;SDS011;38190;59.928;10.446;2022-07-23T17:08:33;1.08;;;0.95;;
52226;SDS011;38190;59.928;10.446;2022-07-23T17:11:35;2.08;;;1.20;;
52226;SDS011;38190;59.928;10.446;2022-07-23T17:14:35;2.20;;;0.77;;
52226;SDS011;38190;59.928;10.446;2022-07-23T17:17:36;1.45;;;0.80;;
52226;SDS011;38190;59.928;10.446;2022-07-23T17:20:37;1.40;;;0.90;;
52226;SDS011;38190;59.928;10.446;2022-07-23T17:23:38;0.93;;;0.73;;
52226;SDS011;38190;59.928;10.446;2022-07-23T17:26:38;1.45;;;0.80;;
52226;SDS011;38190;59.928;10.446;2022-07-23T17:29:39;1.23;;;0.60;;
52226;SDS011;38190;59.928;10.446;2022-07-23T17:32:40;3.05;;;0.88;;
52226;SDS011;38190;59.928;10.446;2022-07-23T17:35:41;0.73;;;0.55;;
52226;SDS011;38190;59.928;10.446;2022-07-23T17:38:41;1.63;;;0.95;;
52226;SDS011;38190;59.928;10.446;2022-07-23T17:41:42;1.25;;;1.05;;
52226;SDS011;38190;59.928;10.446;2022-07-23T17:44:47;1.25;;;0.75;;
52226;SDS011;38190;59.928;10.446;2022-07-23T17:47:48;1.80;;;1.00;;
52226;SDS011;38190;59.928;10.446;2022-07-23T17:50:49;1.42;;;0.75;;
52226;SDS011;38190;59.928;10.446;2022-07-23T17:53:49;1.25;;;0.73;;
52226;SDS011;38190;59.928;10.446;2022-07-23T17:56:49;0.95;;;0.57;;
52226;SDS011;38190;59.928;10.446;2022-07-23T17:59:50;0.93;;;0.70;;
52226;SDS011;38190;59.928;10.446;2022-07-23T18:02:50;0.93;;;0.85;;
52226;SDS011;38190;59.928;10.446;2022-07-23T18:05:51;1.75;;;0.73;;
52226;SDS011;38190;59.928;10.446;2022-07-23T18:08:52;3.17;;;1.85;;
52226;SDS011;38190;59.928;10.446;2022-07-23T18:11:52;2.10;;;1.05;;
52226;SDS011;38190;59.928;10.446;2022-07-23T18:14:53;1.30;;;0.75;;
52226;SDS011;38190;59.928;10.446;2022-07-23T18:17:53;1.33;;;1.05;;
52226;SDS011;38190;59.928;10.446;2022-07-23T18:20:54;2.20;;;1.00;;
52226;SDS011;38190;59.928;10.446;2022-07-23T18:23:54;2.28;;;0.80;;
52226;SDS011;38190;59.928;10.446;2022-07-23T18:26:55;1.90;;;0.98;;